sensor_id;sensor_type;location;lat;lon;timestamp;pressure;altitude;pressure_sealevel;temperature;humidity
8398;BME280;4236;54.504;9.588;2024-02-15T00:00:16;101350.25;;;9.96;100.00
8398;BME280;4236;54.504;9.588;2024-02-15T00:02:44;101359.09;;;9.97;100.00
8398;BME280;4236;54.504;9.588;2024-02-15T00:05:11;101347.41;;;9.98;100.00
8398;BME280;4236;54.504;9.588;2024-02-15T00:07:41;101341.91;;;9.99;100.00
8398;BME280;4236;54.504;9.588;2024-02-15T00:10:10;101348.06;;;10.00;100.00
8398;BME280;4236;54.504;9.588;2024-02-15T00:12:38;101348.88;;;10.00;100.00
8398;BME280;4236;54.504;9.588;2024-02-15T00:15:06;101354.41;;;9.99;100.00
8398;BME280;4236;54.504;9.588;2024-02-15T00:17:36;101363.22;;;9.99;100.00
8398;BME280;4236;54.504;9.588;2024-02-15T00:20:04;101358.75;;;10.00;100.00
8398;BME280;4236;54.504;9.588;2024-02-15T00:22:35;101355.41;;;9.98;100.00
8398;BME280;4236;54.504;9.588;2024-02-15T00:25:04;101354.41;;;9.99;100.00
8398;BME280;4236;54.504;9.588;2024-02-15T00:27:32;101348.06;;;10.00;100.00
8398;BME280;4236;54.504;9.588;2024-02-15T00:30:01;101346.22;;;10.00;100.00
8398;BME280;4236;54.504;9.588;2024-02-15T00:32:29;101342.75;;;10.00;100.00
8398;BME280;4236;54.504;9.588;2024-02-15T00:34:59;101342.56;;;10.01;100.00
8398;BME280;4236;54.504;9.588;2024-02-15T00:37:28;101340.09;;;10.00;100.00
8398;BME280;4236;54.504;9.588;2024-02-15T00:39:55;101345.41;;;10.00;100.00
8398;BME280;4236;54.504;9.588;2024-02-15T00:42:23;101337.41;;;10.00;100.00
8398;BME280;4236;54.504;9.588;2024-02-15T00:44:52;101340.72;;;10.02;100.00
8398;BME280;4236;54.504;9.588;2024-02-15T00:47:20;101341.72;;;10.01;100.00
8398;BME280;4236;54.504;9.588;2024-02-15T00:49:47;101347.06;;;10.01;100.00
8398;BME280;4236;54.504;9.588;2024-02-15T00:52:18;101354.06;;;10.02;100.00
8398;BME280;4236;54.504;9.588;2024-02-15T00:54:46;101349.72;;;10.01;100.00
8398;BME280;4236;54.504;9.588;2024-02-15T00:57:14;101351.38;;;10.02;100.00
8398;BME280;4236;54.504;9.588;2024-02-15T00:59:42;101360.22;;;10.02;100.00
8398;BME280;4236;54.504;9.588;2024-02-15T01:02:10;101360.00;;;10.04;100.00
8398;BME280;4236;54.504;9.588;2024-02-15T01:04:39;101356.72;;;10.02;100.00
8398;BME280;4236;54.504;9.588;2024-02-15T01:07:06;101361.22;;;10.01;100.00
8398;BME280;4236;54.504;9.588;2024-02-15T01:09:36;101371.69;;;10.03;100.00
8398;BME280;4236;54.504;9.588;2024-02-15T01:12:04;101356.72;;;10.02;100.00
8398;BME280;4236;54.504;9.588;2024-02-15T01:14:32;101357.53;;;10.02;100.00
8398;BME280;4236;54.504;9.588;2024-02-15T01:17:01;101357.53;;;10.02;100.00
8398;BME280;4236;54.504;9.588;2024-02-15T01:19:29;101354.88;;;10.02;100.00
8398;BME280;4236;54.504;9.588;2024-02-15T01:21:57;101353.22;;;10.01;100.00
8398;BME280;4236;54.504;9.588;2024-02-15T01:24:26;101358.53;;;10.01;100.00
8398;BME280;4236;54.504;9.588;2024-02-15T01:26:55;101362.03;;;10.02;100.00
8398;BME280;4236;54.504;9.588;2024-02-15T01:29:23;101363.72;;;10.03;100.00
8398;BME280;4236;54.504;9.588;2024-02-15T01:31:52;101354.88;;;10.02;100.00
8398;BME280;4236;54.504;9.588;2024-02-15T01:34:20;101359.19;;;10.03;100.00
8398;BME280;4236;54.504;9.588;2024-02-15T01:36:48;101348.72;;;10.02;100.00
8398;BME280;4236;54.504;9.588;2024-02-15T01:39:16;101354.06;;;10.02;100.00
8398;BME280;4236;54.504;9.588;2024-02-15T01:41:46;101357.34;;;10.04;100.00
8398;BME280;4236;54.504;9.588;2024-02-15T01:44:18;101356.53;;;10.03;100.00
8398;BME280;4236;54.504;9.588;2024-02-15T01:46:48;101353.84;;;10.03;100.00
8398;BME280;4236;54.504;9.588;2024-02-15T01:49:16;101355.53;;;10.05;100.00
8398;BME280;4236;54.504;9.588;2024-02-15T01:51:45;101354.06;;;10.02;100.00
8398;BME280;4236;54.504;9.588;2024-02-15T01:54:13;101354.88;;;10.02;100.00
8398;BME280;4236;54.504;9.588;2024-02-15T01:56:44;101350.38;;;10.03;100.00
8398;BME280;4236;54.504;9.588;2024-02-15T01:59:13;101348.53;;;10.03;100.00
8398;BME280;4236;54.504;9.588;2024-02-15T02:01:44;101343.38;;;10.02;100.00
8398;BME280;4236;54.504;9.588;2024-02-15T02:04:12;101343.56;;;10.00;100.00
8398;BME280;4236;54.504;9.588;2024-02-15T02:06:40;101350.56;;;10.01;100.00
8398;BME280;4236;54.504;9.588;2024-02-15T02:09:10;101352.38;;;10.01;100.00
8398;BME280;4236;54.504;9.588;2024-02-15T02:11:39;101353.22;;;10.01;100.00
8398;BME280;4236;54.504;9.588;2024-02-15T02:14:07;101351.19;;;10.03;100.00
8398;BME280;4236;54.504;9.588;2024-02-15T02:16:35;101351.84;;;10.06;100.00
8398;BME280;4236;54.504;9.588;2024-02-15T02:19:04;101343.19;;;10.03;100.00
8398;BME280;4236;54.504;9.588;2024-02-15T02:21:36;101350.03;;;10.06;100.00
8398;BME280;4236;54.504;9.588;2024-02-15T02:24:11;101343.03;;;10.05;100.00
8398;BME280;4236;54.504;9.588;2024-02-15T02:26:41;101346.69;;;10.04;100.00
8398;BME280;4236;54.504;9.588;2024-02-15T02:29:10;101338.06;;;10.02;100.00
8398;BME280;4236;54.504;9.588;2024-02-15T02:31:37;101343.38;;;10.02;100.00
8398;BME280;4236;54.504;9.588;2024-02-15T02:34:05;101344.38;;;10.01;100.00
8398;BME280;4236;54.504;9.588;2024-02-15T02:36:34;101347.06;;;10.01;100.00
8398;BME280;4236;54.504;9.588;2024-02-15T02:39:02;101345.78;;;9.97;100.00
8398;BME280;4236;54.504;9.588;2024-02-15T02:41:30;101349.06;;;9.99;100.00
8398;BME280;4236;54.504;9.588;2024-02-15T02:43:59;101352.09;;;9.96;100.00
8398;BME280;4236;54.504;9.588;2024-02-15T02:46:27;101341.78;;;9.93;100.00
8398;BME280;4236;54.504;9.588;2024-02-15T02:48:55;101347.75;;;9.95;100.00
8398;BME280;4236;54.504;9.588;2024-02-15T02:51:23;101338.13;;;9.94;100.00
8398;BME280;4236;54.504;9.588;2024-02-15T02:53:51;101341.16;;;9.91;100.00
8398;BME280;4236;54.504;9.588;2024-02-15T02:56:18;101346.47;;;9.91;100.00
8398;BME280;4236;54.504;9.588;2024-02-15T02:58:46;101346.63;;;9.89;100.00
8398;BME280;4236;54.504;9.588;2024-02-15T03:01:15;101332.03;;;9.85;100.00
8398;BME280;4236;54.504;9.588;2024-02-15T03:03:44;101343.03;;;9.82;100.00
8398;BME280;4236;54.504;9.588;2024-02-15T03:06:12;101342.69;;;9.85;100.00
8398;BME280;4236;54.504;9.588;2024-02-15T03:08:40;101344.03;;;9.81;100.00
8398;BME280;4236;54.504;9.588;2024-02-15T03:11:08;101348.72;;;9.79;100.00
8398;BME280;4236;54.504;9.588;2024-02-15T03:13:35;101350.72;;;9.77;100.00
8398;BME280;4236;54.504;9.588;2024-02-15T03:16:04;101345.59;;;9.76;100.00
8398;BME280;4236;54.504;9.588;2024-02-15T03:18:34;101337.75;;;9.74;100.00
8398;BME280;4236;54.504;9.588;2024-02-15T03:21:02;101340.59;;;9.73;100.00
8398;BME280;4236;54.504;9.588;2024-02-15T03:23:30;101343.91;;;9.75;100.00
8398;BME280;4236;54.504;9.588;2024-02-15T03:26:01;101346.09;;;9.71;100.00
8398;BME280;4236;54.504;9.588;2024-02-15T03:28:30;101354.09;;;9.71;100.00
8398;BME280;4236;54.504;9.588;2024-02-15T03:30:58;101354.44;;;9.68;100.00
8398;BME280;4236;54.504;9.588;2024-02-15T03:33:27;101356.63;;;9.65;100.00
8398;BME280;4236;54.504;9.588;2024-02-15T03:36:02;101359.47;;;9.63;100.00
8398;BME280;4236;54.504;9.588;2024-02-15T03:38:30;101358.28;;;9.66;100.00
8398;BME280;4236;54.504;9.588;2024-02-15T03:40:58;101366.47;;;9.64;100.00
8398;BME280;4236;54.504;9.588;2024-02-15T03:43:26;101358.63;;;9.63;100.00
8398;BME280;4236;54.504;9.588;2024-02-15T03:45:53;101360.81;;;9.59;100.00
8398;BME280;4236;54.504;9.588;2024-02-15T03:48:21;101366.81;;;9.61;100.00
8398;BME280;4236;54.504;9.588;2024-02-15T03:50:49;101375.97;;;9.59;100.00
8398;BME280;4236;54.504;9.588;2024-02-15T03:53:18;101372.28;;;9.60;100.00
8398;BME280;4236;54.504;9.588;2024-02-15T03:55:46;101364.31;;;9.60;100.00
8398;BME280;4236;54.504;9.588;2024-02-15T03:58:13;101367.81;;;9.60;100.00
8398;BME280;4236;54.504;9.588;2024-02-15T04:00:42;101364.66;;;9.57;100.00
8398;BME280;4236;54.504;9.588;2024-02-15T04:03:11;101361.00;;;9.58;100.00
8398;BME280;4236;54.504;9.588;2024-02-15T04:05:38;101361.34;;;9.55;100.00
8398;BME280;4236;54.504;9.588;2024-02-15T04:08:06;101361.00;;;9.58;100.00
8398;BME280;4236;54.504;9.588;2024-02-15T04:10:36;101361.16;;;9.56;100.00
8398;BME280;4236;54.504;9.588;2024-02-15T04:13:04;101360.16;;;9.57;100.00
8398;BME280;4236;54.504;9.588;2024-02-15T04:15:32;101368.34;;;9.56;100.00
8398;BME280;4236;54.504;9.588;2024-02-15T04:18:00;101360.00;;;9.59;100.00
8398;BME280;4236;54.504;9.588;2024-02-15T04:20:28;101363.66;;;9.58;100.00
8398;BME280;4236;54.504;9.588;2024-02-15T04:22:56;101364.00;;;9.55;100.00
8398;BME280;4236;54.504;9.588;2024-02-15T04:25:26;101373.66;;;9.56;100.00
8398;BME280;4236;54.504;9.588;2024-02-15T04:27:56;101365.84;;;9.54;100.00
8398;BME280;4236;54.504;9.588;2024-02-15T04:30:30;101367.66;;;9.54;100.00
8398;BME280;4236;54.504;9.588;2024-02-15T04:32:59;101361.34;;;9.55;100.00
8398;BME280;4236;54.504;9.588;2024-02-15T04:35:27;101366.50;;;9.56;100.00
8398;BME280;4236;54.504;9.588;2024-02-15T04:37:55;101370.34;;;9.54;100.00
8398;BME280;4236;54.504;9.588;2024-02-15T04:40:22;101377.13;;;9.56;100.00
8398;BME280;4236;54.504;9.588;2024-02-15T04:42:50;101373.00;;;9.54;100.00
8398;BME280;4236;54.504;9.588;2024-02-15T04:45:19;101375.16;;;9.50;100.00
8398;BME280;4236;54.504;9.588;2024-02-15T04:47:48;101369.50;;;9.53;100.00
8398;BME280;4236;54.504;9.588;2024-02-15T04:50:19;101378.31;;;9.54;100.00
8398;BME280;4236;54.504;9.588;2024-02-15T04:52:47;101371.16;;;9.54;100.00
8398;BME280;4236;54.504;9.588;2024-02-15T04:55:16;101371.16;;;9.54;100.00
8398;BME280;4236;54.504;9.588;2024-02-15T04:57:45;101384.66;;;9.53;100.00
8398;BME280;4236;54.504;9.588;2024-02-15T05:00:16;101376.00;;;9.51;100.00
8398;BME280;4236;54.504;9.588;2024-02-15T05:02:48;101381.69;;;9.48;100.00
8398;BME280;4236;54.504;9.588;2024-02-15T05:05:16;101374.53;;;9.48;100.00
8398;BME280;4236;54.504;9.588;2024-02-15T05:07:45;101378.84;;;9.49;100.00
8398;BME280;4236;54.504;9.588;2024-02-15T05:10:15;101376.34;;;9.48;100.00
8398;BME280;4236;54.504;9.588;2024-02-15T05:12:43;101375.50;;;9.47;100.00
8398;BME280;4236;54.504;9.588;2024-02-15T05:15:15;101372.22;;;9.45;100.00
8398;BME280;4236;54.504;9.588;2024-02-15T05:17:44;101374.72;;;9.47;100.00
8398;BME280;4236;54.504;9.588;2024-02-15T05:20:15;101379.56;;;9.43;100.00
8398;BME280;4236;54.504;9.588;2024-02-15T05:22:43;101370.72;;;9.42;100.00
8398;BME280;4236;54.504;9.588;2024-02-15T05:25:16;101368.91;;;9.43;100.00
8398;BME280;4236;54.504;9.588;2024-02-15T05:27:50;101368.72;;;9.44;100.00
8398;BME280;4236;54.504;9.588;2024-02-15T05:30:20;101372.41;;;9.43;100.00
8398;BME280;4236;54.504;9.588;2024-02-15T05:32:49;101369.75;;;9.43;100.00
8398;BME280;4236;54.504;9.588;2024-02-15T05:35:20;101371.72;;;9.41;100.00
8398;BME280;4236;54.504;9.588;2024-02-15T05:37:48;101369.25;;;9.40;100.00
8398;BME280;4236;54.504;9.588;2024-02-15T05:40:19;101372.41;;;9.43;100.00
8398;BME280;4236;54.504;9.588;2024-02-15T05:42:47;101358.06;;;9.44;100.00
8398;BME280;4236;54.504;9.588;2024-02-15T05:45:31;101368.56;;;9.46;100.00
8398;BME280;4236;54.504;9.588;2024-02-15T05:48:05;101367.06;;;9.43;100.00
8398;BME280;4236;54.504;9.588;2024-02-15T05:50:37;101365.22;;;9.44;100.00
8398;BME280;4236;54.504;9.588;2024-02-15T05:53:04;101361.06;;;9.41;100.00
8398;BME280;4236;54.504;9.588;2024-02-15T05:55:34;101369.06;;;9.41;100.00
8398;BME280;4236;54.504;9.588;2024-02-15T05:58:04;101375.88;;;9.44;100.00
8398;BME280;4236;54.504;9.588;2024-02-15T06:00:34;101373.19;;;9.44;100.00
8398;BME280;4236;54.504;9.588;2024-02-15T06:03:02;101373.19;;;9.44;100.00
8398;BME280;4236;54.504;9.588;2024-02-15T06:05:30;101369.53;;;9.45;100.00
8398;BME280;4236;54.504;9.588;2024-02-15T06:08:00;101364.06;;;9.47;100.00
8398;BME280;4236;54.504;9.588;2024-02-15T06:10:28;101371.03;;;9.48;100.00
8398;BME280;4236;54.504;9.588;2024-02-15T06:12:56;101370.88;;;9.49;100.00
8398;BME280;4236;54.504;9.588;2024-02-15T06:15:25;101367.72;;;9.45;100.00
8398;BME280;4236;54.504;9.588;2024-02-15T06:17:53;101370.88;;;9.49;100.00
8398;BME280;4236;54.504;9.588;2024-02-15T06:20:21;101374.03;;;9.53;100.00
8398;BME280;4236;54.504;9.588;2024-02-15T06:22:50;101369.50;;;9.53;100.00
8398;BME280;4236;54.504;9.588;2024-02-15T06:25:20;101380.63;;;9.57;100.00
8398;BME280;4236;54.504;9.588;2024-02-15T06:27:49;101376.78;;;9.59;100.00
8398;BME280;4236;54.504;9.588;2024-02-15T06:30:24;101376.63;;;9.61;100.00
8398;BME280;4236;54.504;9.588;2024-02-15T06:33:10;101378.09;;;9.63;100.00
8398;BME280;4236;54.504;9.588;2024-02-15T06:36:07;101385.75;;;9.66;100.00
8398;BME280;4236;54.504;9.588;2024-02-15T06:38:52;101391.56;;;9.70;100.00
8398;BME280;4236;54.504;9.588;2024-02-15T06:41:38;101393.69;;;9.74;100.00
8398;BME280;4236;54.504;9.588;2024-02-15T06:44:07;101392.50;;;9.77;100.00
8398;BME280;4236;54.504;9.588;2024-02-15T06:46:34;101387.84;;;9.79;100.00
8398;BME280;4236;54.504;9.588;2024-02-15T06:49:02;101392.81;;;9.82;100.00
8398;BME280;4236;54.504;9.588;2024-02-15T06:51:32;101396.78;;;9.86;100.00
8398;BME280;4236;54.504;9.588;2024-02-15T06:53:59;101393.13;;;9.87;100.00
8398;BME280;4236;54.504;9.588;2024-02-15T06:56:29;101399.09;;;9.89;100.00
8398;BME280;4236;54.504;9.588;2024-02-15T06:58:59;101395.06;;;9.93;100.00
8398;BME280;4236;54.504;9.588;2024-02-15T07:01:26;101396.56;;;9.95;100.00
8398;BME280;4236;54.504;9.588;2024-02-15T07:03:54;101392.06;;;9.96;100.00
8398;BME280;4236;54.504;9.588;2024-02-15T07:06:25;101393.53;;;9.98;100.00
8398;BME280;4236;54.504;9.588;2024-02-15T07:08:54;101395.19;;;9.99;100.00
8398;BME280;4236;54.504;9.588;2024-02-15T07:11:23;101397.69;;;10.01;100.00
8398;BME280;4236;54.504;9.588;2024-02-15T07:13:51;101397.16;;;10.06;100.00
8398;BME280;4236;54.504;9.588;2024-02-15T07:16:22;101401.66;;;10.05;100.00
8398;BME280;4236;54.504;9.588;2024-02-15T07:18:50;101400.47;;;10.08;100.00
8398;BME280;4236;54.504;9.588;2024-02-15T07:21:19;101403.78;;;10.10;100.00
8398;BME280;4236;54.504;9.588;2024-02-15T07:23:52;101406.44;;;10.10;100.00
8398;BME280;4236;54.504;9.588;2024-02-15T07:26:20;101405.28;;;10.12;100.00
8398;BME280;4236;54.504;9.588;2024-02-15T07:28:51;101407.28;;;10.10;100.00
8398;BME280;4236;54.504;9.588;2024-02-15T07:31:19;101411.41;;;10.13;100.00
8398;BME280;4236;54.504;9.588;2024-02-15T07:33:50;101410.44;;;10.14;100.00
8398;BME280;4236;54.504;9.588;2024-02-15T07:36:19;101410.28;;;10.15;100.00
8398;BME280;4236;54.504;9.588;2024-02-15T07:38:48;101411.94;;;10.16;100.00
8398;BME280;4236;54.504;9.588;2024-02-15T07:41:17;101417.09;;;10.18;100.00
8398;BME280;4236;54.504;9.588;2024-02-15T07:43:46;101414.59;;;10.16;100.00
8398;BME280;4236;54.504;9.588;2024-02-15T07:46:14;101418.72;;;10.19;100.00
8398;BME280;4236;54.504;9.588;2024-02-15T07:48:43;101416.91;;;10.19;100.00
8398;BME280;4236;54.504;9.588;2024-02-15T07:51:14;101422.91;;;10.21;100.00
8398;BME280;4236;54.504;9.588;2024-02-15T07:53:42;101416.56;;;10.22;100.00
8398;BME280;4236;54.504;9.588;2024-02-15T07:56:11;101420.53;;;10.26;100.00
8398;BME280;4236;54.504;9.588;2024-02-15T07:58:39;101419.53;;;10.27;100.00
8398;BME280;4236;54.504;9.588;2024-02-15T08:01:09;101417.66;;;10.28;100.00
8398;BME280;4236;54.504;9.588;2024-02-15T08:03:36;101423.47;;;10.31;100.00
8398;BME280;4236;54.504;9.588;2024-02-15T08:06:09;101419.63;;;10.34;100.00
8398;BME280;4236;54.504;9.588;2024-02-15T08:08:41;101416.44;;;10.38;100.00
8398;BME280;4236;54.504;9.588;2024-02-15T08:11:08;101418.56;;;10.43;100.00
8398;BME280;4236;54.504;9.588;2024-02-15T08:13:44;101421.69;;;10.46;100.00
8398;BME280;4236;54.504;9.588;2024-02-15T08:16:15;101414.88;;;10.44;100.00
8398;BME280;4236;54.504;9.588;2024-02-15T08:18:43;101411.88;;;10.47;100.00
8398;BME280;4236;54.504;9.588;2024-02-15T08:21:13;101416.47;;;10.53;100.00
8398;BME280;4236;54.504;9.588;2024-02-15T08:23:43;101420.81;;;10.54;100.00
8398;BME280;4236;54.504;9.588;2024-02-15T08:26:10;101423.13;;;10.57;100.00
8398;BME280;4236;54.504;9.588;2024-02-15T08:28:38;101422.41;;;10.63;100.00
8398;BME280;4236;54.504;9.588;2024-02-15T08:31:06;101420.00;;;10.68;100.00
8398;BME280;4236;54.504;9.588;2024-02-15T08:33:36;101420.94;;;10.75;100.00
8398;BME280;4236;54.504;9.588;2024-02-15T08:36:05;101414.59;;;10.76;100.00
8398;BME280;4236;54.504;9.588;2024-02-15T08:38:33;101424.78;;;10.73;100.00
8398;BME280;4236;54.504;9.588;2024-02-15T08:41:05;101411.75;;;10.78;100.00
8398;BME280;4236;54.504;9.588;2024-02-15T08:43:33;101400.91;;;10.79;100.00
8398;BME280;4236;54.504;9.588;2024-02-15T08:46:01;101406.69;;;10.83;100.00
8398;BME280;4236;54.504;9.588;2024-02-15T08:48:29;101410.84;;;10.85;100.00
8398;BME280;4236;54.504;9.588;2024-02-15T08:50:57;101408.81;;;10.87;100.00
8398;BME280;4236;54.504;9.588;2024-02-15T08:53:25;101411.31;;;10.89;100.00
8398;BME280;4236;54.504;9.588;2024-02-15T08:55:53;101411.78;;;10.92;100.00
8398;BME280;4236;54.504;9.588;2024-02-15T08:58:22;101417.59;;;10.96;100.00
8398;BME280;4236;54.504;9.588;2024-02-15T09:00:50;101410.84;;;11.00;100.00
8398;BME280;4236;54.504;9.588;2024-02-15T09:03:19;101408.66;;;11.03;100.00
8398;BME280;4236;54.504;9.588;2024-02-15T09:05:47;101408.09;;;11.08;100.00
8398;BME280;4236;54.504;9.588;2024-02-15T09:08:15;101416.56;;;11.11;100.00
8398;BME280;4236;54.504;9.588;2024-02-15T09:10:47;101416.75;;;11.10;100.00
8398;BME280;4236;54.504;9.588;2024-02-15T09:13:18;101422.25;;;11.08;100.00
8398;BME280;4236;54.504;9.588;2024-02-15T09:15:47;101421.25;;;11.09;100.00
8398;BME280;4236;54.504;9.588;2024-02-15T09:18:14;101410.75;;;11.08;100.00
8398;BME280;4236;54.504;9.588;2024-02-15T09:20:46;101425.78;;;11.09;100.00
8398;BME280;4236;54.504;9.588;2024-02-15T09:23:15;101415.47;;;11.06;100.00
8398;BME280;4236;54.504;9.588;2024-02-15T09:25:43;101414.00;;;11.03;100.00
8398;BME280;4236;54.504;9.588;2024-02-15T09:28:11;101409.28;;;11.05;100.00
8398;BME280;4236;54.504;9.588;2024-02-15T09:30:40;101418.59;;;11.09;100.00
8398;BME280;4236;54.504;9.588;2024-02-15T09:33:09;101411.22;;;11.11;100.00
8398;BME280;4236;54.504;9.588;2024-02-15T09:35:37;101423.38;;;11.14;100.00
8398;BME280;4236;54.504;9.588;2024-02-15T09:38:05;101416.84;;;11.17;100.00
8398;BME280;4236;54.504;9.588;2024-02-15T09:40:35;101423.66;;;11.19;100.00
8398;BME280;4236;54.504;9.588;2024-02-15T09:43:03;101417.28;;;11.20;100.00
8398;BME280;4236;54.504;9.588;2024-02-15T09:45:31;101413.47;;;11.23;100.00
8398;BME280;4236;54.504;9.588;2024-02-15T09:48:05;101421.25;;;11.24;100.00
8398;BME280;4236;54.504;9.588;2024-02-15T09:50:39;101417.75;;;11.24;100.00
8398;BME280;4236;54.504;9.588;2024-02-15T09:53:09;101420.06;;;11.27;100.00
8398;BME280;4236;54.504;9.588;2024-02-15T09:55:39;101415.56;;;11.27;100.00
8398;BME280;4236;54.504;9.588;2024-02-15T09:58:08;101417.03;;;11.30;100.00
8398;BME280;4236;54.504;9.588;2024-02-15T10:00:36;101412.78;;;11.35;100.00
8398;BME280;4236;54.504;9.588;2024-02-15T10:03:06;101412.63;;;11.37;100.00
8398;BME280;4236;54.504;9.588;2024-02-15T10:05:36;101414.53;;;11.43;100.00
8398;BME280;4236;54.504;9.588;2024-02-15T10:08:06;101404.31;;;11.46;100.00
8398;BME280;4236;54.504;9.588;2024-02-15T10:10:37;101405.69;;;11.57;100.00
8398;BME280;4236;54.504;9.588;2024-02-15T10:13:05;101403.72;;;11.65;100.00
8398;BME280;4236;54.504;9.588;2024-02-15T10:15:34;101408.63;;;11.77;100.00
8398;BME280;4236;54.504;9.588;2024-02-15T10:18:04;101407.84;;;11.83;100.00
8398;BME280;4236;54.504;9.588;2024-02-15T10:20:36;101411.63;;;11.88;100.00
8398;BME280;4236;54.504;9.588;2024-02-15T10:23:12;101419.91;;;11.93;100.00
8398;BME280;4236;54.504;9.588;2024-02-15T10:25:40;101411.31;;;11.98;100.00
8398;BME280;4236;54.504;9.588;2024-02-15T10:28:09;101410.94;;;12.01;100.00
8398;BME280;4236;54.504;9.588;2024-02-15T10:30:39;101417.41;;;12.06;100.00
8398;BME280;4236;54.504;9.588;2024-02-15T10:33:10;101409.75;;;12.03;100.00
8398;BME280;4236;54.504;9.588;2024-02-15T10:35:39;101418.19;;;12.07;100.00
8398;BME280;4236;54.504;9.588;2024-02-15T10:38:08;101407.13;;;12.10;100.00
8398;BME280;4236;54.504;9.588;2024-02-15T10:40:37;101411.06;;;12.14;100.00
8398;BME280;4236;54.504;9.588;2024-02-15T10:43:08;101407.56;;;12.13;100.00
8398;BME280;4236;54.504;9.588;2024-02-15T10:45:40;101417.06;;;12.16;100.00
8398;BME280;4236;54.504;9.588;2024-02-15T10:48:08;101409.50;;;12.19;100.00
8398;BME280;4236;54.504;9.588;2024-02-15T10:50:40;101404.59;;;12.23;100.00
8398;BME280;4236;54.504;9.588;2024-02-15T10:53:18;101393.97;;;12.30;100.00
8398;BME280;4236;54.504;9.588;2024-02-15T10:55:53;101403.31;;;12.40;100.00
8398;BME280;4236;54.504;9.588;2024-02-15T10:58:26;101400.13;;;12.51;100.00
8398;BME280;4236;54.504;9.588;2024-02-15T11:01:02;101400.53;;;12.55;100.00
8398;BME280;4236;54.504;9.588;2024-02-15T11:03:36;101402.88;;;12.64;100.00
8398;BME280;4236;54.504;9.588;2024-02-15T11:06:06;101385.03;;;12.71;100.00
8398;BME280;4236;54.504;9.588;2024-02-15T11:08:35;101383.03;;;12.80;100.00
8398;BME280;4236;54.504;9.588;2024-02-15T11:11:04;101377.53;;;12.88;100.00
8398;BME280;4236;54.504;9.588;2024-02-15T11:13:32;101373.25;;;12.94;100.00
8398;BME280;4236;54.504;9.588;2024-02-15T11:16:00;101366.88;;;12.95;100.00
8398;BME280;4236;54.504;9.588;2024-02-15T11:18:45;101366.88;;;12.95;100.00
8398;BME280;4236;54.504;9.588;2024-02-15T11:21:17;101359.22;;;12.92;100.00
8398;BME280;4236;54.504;9.588;2024-02-15T11:23:45;101361.91;;;12.92;100.00
8398;BME280;4236;54.504;9.588;2024-02-15T11:26:43;101358.63;;;12.96;100.00
8398;BME280;4236;54.504;9.588;2024-02-15T11:32:39;101354.09;;;12.97;100.00
8398;BME280;4236;54.504;9.588;2024-02-15T11:35:11;101349.16;;;12.94;100.00
8398;BME280;4236;54.504;9.588;2024-02-15T11:37:54;101350.59;;;12.96;100.00
8398;BME280;4236;54.504;9.588;2024-02-15T11:40:26;101348.91;;;12.89;100.00
8398;BME280;4236;54.504;9.588;2024-02-15T11:42:56;101357.19;;;12.94;100.00
8398;BME280;4236;54.504;9.588;2024-02-15T11:45:25;101352.88;;;12.93;100.00
8398;BME280;4236;54.504;9.588;2024-02-15T11:47:59;101349.41;;;12.99;100.00
8398;BME280;4236;54.504;9.588;2024-02-15T11:50:34;101353.53;;;13.01;100.00
8398;BME280;4236;54.504;9.588;2024-02-15T11:53:04;101346.94;;;13.04;100.00
8398;BME280;4236;54.504;9.588;2024-02-15T11:55:36;101343.69;;;13.08;100.00
8398;BME280;4236;54.504;9.588;2024-02-15T11:58:05;101339.44;;;13.14;100.00
8398;BME280;4236;54.504;9.588;2024-02-15T12:00:44;101341.88;;;13.15;100.00
8398;BME280;4236;54.504;9.588;2024-02-15T12:03:29;101335.94;;;13.20;100.00
8398;BME280;4236;54.504;9.588;2024-02-15T12:06:30;101334.31;;;13.32;100.00
8398;BME280;4236;54.504;9.588;2024-02-15T12:09:18;101337.66;;;13.34;100.00
8398;BME280;4236;54.504;9.588;2024-02-15T12:12:05;101332.72;;;13.38;100.00
8398;BME280;4236;54.504;9.588;2024-02-15T12:14:58;101334.59;;;13.44;100.00
8398;BME280;4236;54.504;9.588;2024-02-15T12:17:43;101322.84;;;13.45;100.00
8398;BME280;4236;54.504;9.588;2024-02-15T12:20:29;101331.75;;;13.52;100.00
8398;BME280;4236;54.504;9.588;2024-02-15T12:22:58;101332.75;;;13.51;100.00
8398;BME280;4236;54.504;9.588;2024-02-15T12:25:28;101327.63;;;13.49;100.00
8398;BME280;4236;54.504;9.588;2024-02-15T12:28:00;101336.09;;;13.53;100.00
8398;BME280;4236;54.504;9.588;2024-02-15T12:30:33;101324.56;;;13.59;100.00
8398;BME280;4236;54.504;9.588;2024-02-15T12:33:09;101324.34;;;13.60;100.00
8398;BME280;4236;54.504;9.588;2024-02-15T12:35:38;101320.63;;;13.61;100.00
8398;BME280;4236;54.504;9.588;2024-02-15T12:38:06;101318.97;;;13.60;100.00
8398;BME280;4236;54.504;9.588;2024-02-15T12:40:38;101324.78;;;13.70;100.00
8398;BME280;4236;54.504;9.588;2024-02-15T12:43:10;101322.28;;;13.69;100.00
8398;BME280;4236;54.504;9.588;2024-02-15T12:45:40;101324.53;;;13.65;100.00
8398;BME280;4236;54.504;9.588;2024-02-15T12:48:09;101323.72;;;13.58;100.00
8398;BME280;4236;54.504;9.588;2024-02-15T12:50:37;101319.56;;;13.49;100.00
8398;BME280;4236;54.504;9.588;2024-02-15T12:53:06;101314.59;;;13.40;100.00
8398;BME280;4236;54.504;9.588;2024-02-15T12:55:36;101314.78;;;13.32;100.00
8398;BME280;4236;54.504;9.588;2024-02-15T12:58:07;101311.84;;;13.26;100.00
8398;BME280;4236;54.504;9.588;2024-02-15T13:00:41;101312.06;;;13.25;100.00
8398;BME280;4236;54.504;9.588;2024-02-15T13:03:09;101306.69;;;13.18;100.00
8398;BME280;4236;54.504;9.588;2024-02-15T13:05:39;101313.66;;;13.13;100.00
8398;BME280;4236;54.504;9.588;2024-02-15T13:08:07;101315.06;;;13.09;100.00
8398;BME280;4236;54.504;9.588;2024-02-15T13:10:42;101314.81;;;13.04;100.00
8398;BME280;4236;54.504;9.588;2024-02-15T13:13:10;101315.78;;;12.96;100.00
8398;BME280;4236;54.504;9.588;2024-02-15T13:15:38;101310.66;;;12.95;100.00
8398;BME280;4236;54.504;9.588;2024-02-15T13:18:07;101316.78;;;12.89;100.00
8398;BME280;4236;54.504;9.588;2024-02-15T13:20:37;101303.41;;;12.89;100.00
8398;BME280;4236;54.504;9.588;2024-02-15T13:23:06;101311.44;;;12.89;100.00